Αγία Πετρούπολη, Ρωσία

03:07 PM MSK on Ιούλιος 30, 2015 (GMT +0300)
Pulkovo | | Change Station
CLOSE
Current Station
Airport
Location: St. Petersburg,
Elevation: 75 ft
Nearby Weather Stations

Elev 75 ft 59.80 °N, 30.27 °E | Updated 37 minutes ago

Scattered Clouds
Διάσπαρτα Νέφη
70 ° F
Feels Like 70 ° F
N
7
Ανεμος Μεταβλητός Ανεμος from ΝΝΑ

Σήμερα
High -- | Low -- ° F
--% Chance of Precip.
Yesterday
High -- | Low -- ° F
Precip. -- in
4:33 AM 9:34 PM
Αμφίκυρτος, 99% visible
Ατμοσφαιρική Πίεση 29.56 in
Ορατότητα 6.2 Μίλια
Σύννεφα Διάσπαρτα Νέφη 3600 ft
Σημείο Δρόσου 52 ° F
Υγρασία 53%
Rainfall 0.00 in
Snow Depth Not available.
Υπεριώδης ακτινοβολία (UV) 5 out of 12
Pollen Not available.
Air Quality Not available.
Flu Activity Not available.
METAR ULLI 301130Z 15003MPS 110V230 9999 SCT036 21/11 Q1001 R10R/090070 NOSIG

More Conditions Fewer Conditions

Ατμοσφαιρική Πίεση 29.56 in
Ορατότητα 6.2 Μίλια
Σύννεφα Διάσπαρτα Νέφη 3600 ft
Σημείο Δρόσου 52 ° F
Υγρασία 53%
Rainfall 0.00 in
Snow Depth Not available.
Υπεριώδης ακτινοβολία (UV) 5 out of 12
Pollen Not available.
Air Quality Not available.
Flu Activity Not available.
METAR ULLI 301130Z 15003MPS 110V230 9999 SCT036 21/11 Q1001 R10R/090070 NOSIG

More Conditions Fewer Conditions

10-Day Weather Forecast

×

Almanac

Αστρονομία

Jul. 30, 2015 Rise Set
Actual Time
Civil Twilight
Nautical Twilight
Astronomical Twilight
Moon
Length Of Visible Light
Διάρκεια ημέρας
Tomorrow will be .
, % of the Moon is Illuminated

Today's Extremes

Country Highs Country Lows

Community

WunderPhotos

Upload Photos

1,842,339 photos uploaded!

WunderBlogs® & News

Nearby

Air Quality

  Air Quality AQ Index Pollutant
Not available.

Snow Depth

Station Depth Elevation

Earthquake Activity

City Distance Mag. Time & Date
Minimum magnitude displayed is 2.5.

Coastal Water Temperatures

Τοποθεσία Θερμοκρασία

Stations

Nearby Weather Stations

Station Location Temp Δείκτης Ψυχρότητας Σημείο Δρόσου Υγρασία Ανεμος Precip. Elev Ενημερώθηκε Type